Terminal Aerodrome Forecast
Issued by NWS Grand Forks, ND

Home | Current Version | Previous Version | Graphics & Text | Print | Product List | Glossary On
Versions: 1 2 3 4 5 6 7 8 9 10 11 12 13 14
002
FTUS43 KFGF 202219 AAA
TAFFAR
TAF AMD
KFAR 202219Z 2022/2118 29006KT P6SM SCT120
     FM210300 VRB05KT P6SM FEW120=

USA.gov is the U.S. government's official web portal to all federal, state and local government web resources and services.